X  CloseMetar Aviation Weather Data     KABQ Albuquerque International Sunport

Temperature

45°F Temperature

37°F Dewpoint

76% Humidity



Wind

 0 MPH

 0 KM/H

 0 M/S

 0 KTS



Calm
Due North
Current Conditions

Partly Cloudy Partly Cloudy
Pressure 1017.92 (hPa) - 30.06 (in)
Visibility 10 (mi) - 16.1 (km)
Airport
Airport-code KABQ

Location Albuquerque International Sunport 16 (mi)

Metar:
KABQ 050452Z 00000KT 10SM FEW045 BKN070 BKN120 07/03 A3006 RMK AO2 SLP161 VIRGA W MTN TOPS OBSC NE-SE T00720033

Time: 12-04-2019 9:52